createdAt,value
2019-02-18T00:04:56.508Z,28.10
2019-02-18T00:07:23.880Z,19.35
2019-02-18T00:09:51.223Z,16.23
2019-02-18T00:12:18.522Z,16.23
2019-02-18T00:14:45.860Z,15.08
2019-02-18T00:17:13.207Z,13.95
2019-02-18T00:19:40.588Z,16.90
2019-02-18T00:22:07.876Z,15.43
2019-02-18T00:24:35.177Z,15.05
2019-02-18T00:27:02.482Z,15.00
2019-02-18T00:29:29.864Z,14.00
2019-02-18T00:31:57.148Z,13.65
2019-02-18T00:37:24.956Z,12.15
2019-02-18T00:39:52.276Z,13.25
2019-02-18T00:42:19.577Z,13.72
2019-02-18T00:44:46.868Z,14.15
2019-02-18T00:47:14.241Z,13.98
2019-02-18T00:49:41.546Z,12.33
2019-02-18T00:52:08.915Z,12.18
2019-02-18T00:54:36.275Z,13.55
2019-02-18T00:57:03.589Z,12.80
2019-02-18T00:59:30.890Z,11.53
2019-02-18T01:01:58.201Z,12.53
2019-02-18T01:04:25.494Z,11.63
2019-02-18T01:06:52.789Z,11.80
2019-02-18T01:09:20.087Z,13.40
2019-02-18T01:11:47.467Z,12.03
2019-02-18T01:14:14.835Z,11.75
2019-02-18T01:16:42.141Z,11.95
2019-02-18T01:19:09.431Z,12.45
2019-02-18T01:21:36.797Z,10.58
2019-02-18T01:24:04.076Z,12.03
2019-02-18T01:26:31.383Z,12.03
2019-02-18T01:28:58.689Z,11.00
2019-02-18T01:31:26.062Z,12.73
2019-02-18T01:33:53.349Z,13.78
2019-02-18T01:36:22.945Z,12.37
2019-02-18T01:38:49.667Z,12.82
2019-02-18T01:41:16.958Z,12.28
2019-02-18T01:43:44.274Z,13.10
2019-02-18T01:46:11.595Z,11.18
2019-02-18T01:48:38.962Z,12.68
2019-02-18T01:51:06.247Z,11.73
2019-02-18T01:53:33.603Z,12.63
2019-02-18T01:56:00.947Z,12.63
2019-02-18T01:58:28.274Z,11.80
2019-02-18T02:00:55.553Z,11.70
2019-02-18T02:03:25.154Z,11.55
2019-02-18T02:05:52.031Z,11.93
2019-02-18T02:08:19.331Z,11.57
2019-02-18T02:10:46.699Z,12.60
2019-02-18T02:13:33.346Z,12.95
2019-02-18T02:19:07.919Z,12.25
2019-02-18T02:21:35.213Z,14.53
2019-02-18T02:24:02.583Z,12.93
2019-02-18T02:26:29.950Z,12.93
2019-02-18T02:28:57.261Z,13.60
2019-02-18T02:31:24.570Z,12.33
2019-02-18T02:33:51.948Z,11.53
2019-02-18T02:36:19.250Z,14.35
2019-02-18T02:38:46.592Z,12.40
2019-02-18T02:41:14.031Z,12.95
2019-02-18T02:43:41.324Z,12.95
2019-02-18T02:46:08.613Z,13.15
2019-02-18T02:48:35.926Z,12.73
2019-02-18T02:51:03.273Z,11.50
2019-02-18T02:53:30.586Z,13.13
2019-02-18T02:55:57.930Z,13.13
2019-02-18T02:58:25.227Z,12.78
2019-02-18T03:00:52.518Z,13.25
2019-02-18T03:03:19.899Z,12.25
2019-02-18T03:05:47.270Z,12.58
2019-02-18T03:08:20.261Z,12.65
2019-02-18T03:10:43.674Z,13.38
2019-02-18T03:13:11.096Z,14.30
2019-02-18T03:15:38.378Z,13.68
2019-02-18T03:18:05.752Z,13.90
2019-02-18T03:20:33.034Z,13.28
2019-02-18T03:23:00.358Z,13.05
2019-02-18T03:28:54.248Z,14.23
2019-02-18T03:40:16.564Z,13.58
2019-02-18T03:42:43.854Z,13.70
2019-02-18T03:45:11.144Z,13.25
2019-02-18T03:47:38.472Z,14.20
2019-02-18T03:50:05.862Z,13.08
2019-02-18T03:52:33.208Z,14.93
2019-02-18T03:55:00.578Z,12.95
2019-02-18T03:57:27.870Z,13.65
2019-02-18T03:59:55.150Z,13.75
2019-02-18T04:02:22.466Z,14.25
2019-02-18T04:04:49.768Z,13.25
2019-02-18T04:07:17.066Z,13.75
2019-02-18T04:09:44.362Z,13.95
2019-02-18T04:12:11.668Z,13.03
2019-02-18T04:14:38.953Z,13.10
2019-02-18T04:17:06.266Z,13.70
2019-02-18T04:19:33.580Z,12.85
2019-02-18T04:22:00.891Z,15.05
2019-02-18T04:24:28.195Z,12.80
2019-02-18T04:26:55.476Z,13.53
2019-02-18T04:29:22.774Z,14.23
2019-02-18T04:31:50.059Z,13.18
2019-02-18T04:34:18.256Z,13.90
2019-02-18T04:36:45.531Z,12.95
2019-02-18T04:39:12.853Z,12.70
2019-02-18T04:41:40.136Z,13.93
2019-02-18T04:44:07.428Z,15.30
2019-02-18T04:46:55.558Z,13.90
2019-02-18T04:49:24.555Z,13.10
2019-02-18T04:51:51.856Z,13.30
2019-02-18T04:54:19.307Z,13.53
2019-02-18T04:56:46.693Z,13.10
2019-02-18T04:59:14.047Z,13.22
2019-02-18T05:01:41.451Z,14.15
2019-02-18T05:04:08.787Z,14.65
2019-02-18T05:06:36.105Z,13.98
2019-02-18T05:14:26.144Z,14.23
2019-02-18T05:16:53.515Z,13.68
2019-02-18T05:19:22.977Z,13.72
2019-02-18T05:21:49.837Z,12.45
2019-02-18T05:24:17.141Z,13.83
2019-02-18T05:26:44.529Z,12.33
2019-02-18T05:29:11.809Z,14.10
2019-02-18T05:31:39.139Z,14.50
2019-02-18T05:34:06.569Z,13.80
2019-02-18T05:36:33.973Z,14.33
2019-02-18T05:39:01.336Z,13.68
2019-02-18T05:41:31.110Z,13.88
2019-02-18T05:44:16.988Z,13.90
2019-02-18T05:46:44.280Z,12.63
2019-02-18T05:49:11.570Z,13.48
2019-02-18T05:51:38.903Z,13.00
2019-02-18T05:54:06.265Z,13.28
2019-02-18T05:56:33.571Z,14.23
2019-02-18T05:59:00.926Z,14.55
2019-02-18T06:01:28.302Z,13.60
2019-02-18T06:03:55.660Z,14.38
2019-02-18T06:06:22.954Z,15.23
2019-02-18T06:08:50.261Z,14.78
2019-02-18T06:11:17.645Z,13.83
2019-02-18T06:13:44.999Z,13.90
2019-02-18T06:16:12.303Z,14.60
2019-02-18T06:18:39.594Z,13.40
2019-02-18T06:21:06.879Z,14.23
2019-02-18T06:23:34.191Z,13.85
2019-02-18T06:26:01.470Z,14.75
2019-02-18T06:28:28.781Z,14.50
2019-02-18T06:30:56.158Z,14.50
2019-02-18T06:33:23.457Z,13.20
2019-02-18T06:35:50.832Z,13.20
2019-02-18T06:38:18.138Z,14.10
2019-02-18T06:40:45.530Z,13.55
2019-02-18T06:43:12.824Z,16.02
2019-02-18T06:48:29.856Z,16.12
2019-02-18T06:50:57.134Z,14.30
2019-02-18T06:53:24.443Z,14.73
2019-02-18T06:55:51.728Z,15.65
2019-02-18T06:58:38.326Z,17.10
2019-02-18T07:01:25.088Z,15.15
2019-02-18T07:04:11.925Z,14.95
2019-02-18T07:06:58.522Z,17.25
2019-02-18T07:09:51.230Z,14.30
2019-02-18T07:12:33.594Z,15.93
2019-02-18T07:15:00.886Z,15.03
2019-02-18T07:17:28.246Z,16.35
2019-02-18T07:19:55.533Z,16.17
2019-02-18T07:22:22.894Z,16.27
2019-02-18T07:24:50.214Z,14.90
2019-02-18T07:27:17.510Z,15.60
2019-02-18T07:29:44.835Z,17.05
2019-02-18T07:32:12.120Z,16.05
2019-02-18T07:37:17.356Z,15.55
2019-02-18T07:39:44.677Z,16.97
2019-02-18T07:42:11.978Z,14.95
2019-02-18T07:44:39.284Z,15.43
2019-02-18T07:47:06.587Z,15.80
2019-02-18T07:52:08.104Z,16.90
2019-02-18T07:54:35.399Z,16.07
2019-02-18T07:57:02.769Z,17.05
2019-02-18T07:59:30.047Z,17.45
2019-02-18T08:01:57.352Z,16.45
2019-02-18T08:04:24.647Z,16.80
2019-02-18T08:06:52.067Z,18.12
2019-02-18T08:09:20.317Z,16.10
2019-02-18T08:11:47.651Z,17.05
2019-02-18T08:14:14.949Z,18.60
2019-02-18T08:16:42.284Z,17.05
2019-02-18T08:21:43.060Z,16.20
2019-02-18T08:24:10.479Z,15.80
2019-02-18T08:26:37.833Z,16.37
2019-02-18T08:29:05.125Z,16.00
2019-02-18T08:31:32.416Z,16.12
2019-02-18T08:33:59.723Z,16.57
2019-02-18T08:36:27.105Z,16.48
2019-02-18T08:38:54.390Z,18.23
2019-02-18T08:41:21.695Z,17.37
2019-02-18T08:43:49.072Z,16.30
2019-02-18T08:46:16.395Z,18.27
2019-02-18T08:48:43.683Z,19.00
2019-02-18T08:51:10.977Z,18.00
2019-02-18T08:53:38.273Z,18.43
2019-02-18T08:56:07.194Z,17.73
2019-02-18T08:58:34.575Z,17.97
2019-02-18T09:01:02.855Z,19.10
2019-02-18T09:03:30.885Z,17.27
2019-02-18T09:05:58.203Z,19.03
2019-02-18T09:08:25.500Z,19.50
2019-02-18T09:10:52.805Z,19.43
2019-02-18T09:13:20.102Z,19.17
2019-02-18T09:15:47.433Z,18.27
2019-02-18T09:18:14.793Z,18.77
2019-02-18T09:20:42.106Z,18.13
2019-02-18T09:23:28.679Z,18.70
2019-02-18T09:25:56.229Z,20.27
2019-02-18T09:28:23.519Z,18.70
2019-02-18T09:33:28.673Z,19.33
2019-02-18T09:35:55.979Z,18.03
2019-02-18T09:38:25.405Z,17.53
2019-02-18T09:40:52.393Z,18.70
2019-02-18T09:43:19.682Z,18.30
2019-02-18T09:45:47.073Z,16.87
2019-02-18T09:48:14.404Z,19.20
2019-02-18T09:50:41.697Z,19.13
2019-02-18T09:53:08.989Z,17.70
2019-02-18T09:55:36.308Z,18.57
2019-02-18T09:58:03.694Z,17.73
2019-02-18T10:00:31.015Z,19.10
2019-02-18T10:02:58.330Z,18.80
2019-02-18T10:05:25.704Z,18.37
2019-02-18T10:08:12.272Z,18.63
2019-02-18T10:10:39.590Z,18.33
2019-02-18T10:13:08.760Z,17.53
2019-02-18T10:15:36.068Z,17.63
2019-02-18T10:18:03.376Z,18.03
2019-02-18T10:20:30.738Z,17.40
2019-02-18T10:22:58.132Z,16.93
2019-02-18T10:28:13.796Z,17.87
2019-02-18T10:30:41.099Z,18.20
2019-02-18T10:33:08.544Z,17.43
2019-02-18T10:35:35.836Z,18.20
2019-02-18T10:38:03.176Z,16.70
2019-02-18T10:40:30.536Z,18.10
2019-02-18T10:45:51.369Z,18.80
2019-02-18T10:48:18.763Z,17.30
2019-02-18T10:50:46.118Z,19.03
2019-02-18T10:53:13.510Z,18.30
2019-02-18T10:55:43.047Z,17.07
2019-02-18T10:58:10.460Z,16.67
2019-02-18T11:00:37.754Z,17.67
2019-02-18T11:03:05.040Z,17.17
2019-02-18T11:05:32.422Z,17.33
2019-02-18T11:07:59.792Z,18.27
2019-02-18T11:10:27.158Z,16.97
2019-02-18T11:13:14.136Z,16.83
2019-02-18T11:16:00.913Z,17.20
2019-02-18T12:16:40.944Z,16.00
2019-02-18T12:19:08.307Z,16.47
2019-02-18T12:21:35.641Z,14.83
2019-02-18T12:24:03.095Z,15.80
2019-02-18T12:26:32.185Z,15.35
2019-02-18T12:28:59.569Z,16.05
2019-02-18T12:31:26.961Z,17.15
2019-02-18T12:33:54.280Z,15.08
2019-02-18T12:36:21.875Z,16.73
2019-02-18T12:38:49.255Z,14.55
2019-02-18T12:41:16.557Z,13.95
2019-02-18T12:43:44.288Z,15.13
2019-02-18T12:46:15.769Z,14.60
2019-02-18T12:48:41.595Z,15.63
2019-02-18T12:51:08.877Z,14.53
2019-02-18T12:53:36.265Z,15.43
2019-02-18T12:56:03.645Z,14.25
2019-02-18T12:58:31.319Z,15.60
2019-02-18T13:00:58.679Z,14.43
2019-02-18T13:03:27.721Z,14.25
2019-02-18T13:05:55.094Z,13.20
2019-02-18T13:08:24.983Z,14.43
2019-02-18T13:10:51.494Z,14.25
2019-02-18T13:13:18.935Z,14.50
2019-02-18T13:15:46.458Z,14.05
2019-02-18T13:18:14.039Z,15.15
2019-02-18T13:20:41.380Z,15.10
2019-02-18T13:23:10.467Z,14.07
2019-02-18T13:25:37.823Z,14.87
2019-02-18T13:28:08.477Z,13.88
2019-02-18T13:30:34.222Z,14.35
2019-02-18T13:33:01.599Z,14.83
2019-02-18T13:35:28.893Z,13.55
2019-02-18T13:37:56.272Z,12.60
2019-02-18T13:40:25.322Z,15.23
2019-02-18T13:42:52.687Z,14.53
2019-02-18T13:45:19.982Z,15.25
2019-02-18T13:47:47.373Z,14.35
2019-02-18T13:50:14.796Z,14.07
2019-02-18T13:52:42.183Z,14.65
2019-02-18T13:55:30.397Z,14.63
2019-02-18T13:57:57.756Z,15.88
2019-02-18T14:00:25.134Z,16.12
2019-02-18T14:02:52.491Z,13.90
2019-02-18T14:05:21.043Z,14.85
2019-02-18T14:07:48.482Z,14.40
2019-02-18T14:10:16.276Z,14.98
2019-02-18T14:12:43.597Z,14.45
2019-02-18T14:18:00.459Z,15.48
2019-02-18T14:20:27.870Z,14.80
2019-02-18T14:22:56.888Z,13.40
2019-02-18T14:25:24.274Z,13.98
2019-02-18T14:27:51.656Z,14.23
2019-02-18T14:30:19.087Z,13.65
2019-02-18T14:32:46.721Z,13.93
2019-02-18T14:35:34.894Z,13.38
2019-02-18T14:38:03.429Z,13.68
2019-02-18T14:43:18.904Z,13.75
2019-02-18T14:45:46.340Z,13.83
2019-02-18T14:48:13.796Z,13.53
2019-02-18T14:50:41.170Z,14.03
2019-02-18T14:53:08.551Z,14.28
2019-02-18T14:55:35.914Z,14.23
2019-02-18T14:58:24.130Z,14.75
2019-02-18T15:00:51.664Z,13.55
2019-02-18T15:03:19.027Z,13.88
2019-02-18T15:05:46.415Z,13.90
2019-02-18T15:08:13.861Z,14.65
2019-02-18T15:10:41.258Z,14.00
2019-02-18T15:13:08.698Z,13.32
2019-02-18T15:15:36.088Z,14.38
2019-02-18T15:18:05.095Z,13.50
2019-02-18T15:20:32.488Z,15.03
2019-02-18T15:22:59.870Z,14.05
2019-02-18T15:25:27.170Z,14.98
2019-02-18T15:27:54.498Z,13.22
2019-02-18T15:33:10.016Z,13.70
2019-02-18T15:35:37.307Z,13.95
2019-02-18T15:38:04.621Z,14.65
2019-02-18T15:40:31.986Z,13.40
2019-02-18T15:42:59.290Z,15.35
2019-02-18T15:45:26.671Z,14.68
2019-02-18T15:48:01.592Z,14.43
2019-02-18T15:50:23.590Z,15.40
2019-02-18T15:52:50.985Z,14.13
2019-02-18T15:55:18.406Z,13.43
2019-02-18T15:57:45.847Z,13.80
2019-02-18T16:00:32.528Z,15.05
2019-02-18T16:02:59.925Z,13.65
2019-02-18T16:05:27.300Z,14.70
2019-02-18T16:07:54.586Z,13.80
2019-02-18T16:10:22.269Z,13.58
2019-02-18T16:12:51.026Z,13.90
2019-02-18T16:15:18.670Z,14.00
2019-02-18T16:17:57.950Z,14.18
2019-02-18T16:20:15.156Z,13.60
2019-02-18T16:22:42.499Z,13.18
2019-02-18T16:25:29.237Z,14.38
2019-02-18T16:27:56.598Z,13.40
2019-02-18T16:30:24.171Z,13.45
2019-02-18T16:32:51.552Z,14.98
2019-02-18T16:35:38.288Z,15.45
2019-02-18T16:38:05.697Z,14.68
2019-02-18T16:40:34.731Z,14.53
2019-02-18T16:43:02.139Z,13.05
2019-02-18T16:45:29.510Z,12.28
2019-02-18T16:47:56.939Z,13.70
2019-02-18T16:50:26.267Z,13.80
2019-02-18T16:52:54.189Z,14.63
2019-02-18T16:55:21.673Z,14.38
2019-02-18T16:57:49.444Z,14.05
2019-02-18T17:03:10.827Z,13.58
2019-02-18T17:05:38.208Z,14.68
2019-02-18T17:08:05.653Z,13.90
2019-02-18T17:10:33.168Z,12.37
2019-02-18T17:13:08.628Z,14.70
2019-02-18T17:15:36.988Z,14.00
2019-02-18T17:18:04.349Z,13.15
2019-02-18T17:20:31.761Z,13.62
2019-02-18T17:22:59.129Z,14.10
2019-02-18T17:25:26.643Z,13.83
2019-02-18T17:27:54.083Z,14.35
2019-02-18T17:30:21.459Z,13.90
2019-02-18T17:32:48.888Z,12.73
2019-02-18T17:35:16.435Z,12.55
2019-02-18T17:37:43.807Z,14.28
2019-02-18T17:40:12.771Z,14.10
2019-02-18T17:42:41.781Z,13.83
2019-02-18T17:45:13.070Z,14.45
2019-02-18T17:48:01.162Z,13.40
2019-02-18T17:50:30.064Z,13.43
2019-02-18T17:52:58.208Z,13.20
2019-02-18T17:55:26.570Z,15.88
2019-02-18T17:57:54.029Z,15.48
2019-02-18T18:00:42.250Z,14.45
2019-02-18T18:03:09.707Z,15.08
2019-02-18T18:05:37.167Z,15.48
2019-02-18T18:08:04.535Z,16.20
2019-02-18T18:10:31.898Z,14.95
2019-02-18T18:12:59.297Z,16.52
2019-02-18T18:15:26.714Z,14.80
2019-02-18T18:17:54.111Z,16.12
2019-02-18T18:20:21.528Z,16.70
2019-02-18T18:22:48.950Z,14.68
2019-02-18T18:25:16.362Z,15.88
2019-02-18T18:27:43.813Z,15.10
2019-02-18T18:30:32.284Z,18.23
2019-02-18T18:32:59.701Z,15.65
2019-02-18T18:35:27.118Z,15.50
2019-02-18T18:37:56.188Z,15.00
2019-02-18T18:40:26.294Z,15.90
2019-02-18T18:42:53.686Z,18.20
2019-02-18T18:45:21.096Z,16.30
2019-02-18T18:47:48.464Z,19.10
2019-02-18T18:50:36.868Z,15.20
2019-02-18T18:53:04.282Z,15.32
2019-02-18T18:55:31.652Z,14.90
2019-02-18T18:57:59.028Z,15.72
2019-02-18T19:06:11.441Z,16.12
2019-02-18T19:08:38.756Z,15.70
2019-02-18T19:11:06.192Z,15.20
2019-02-18T19:13:41.771Z,15.83
2019-02-18T19:16:23.397Z,13.93
2019-02-18T19:18:50.792Z,14.70
2019-02-18T19:21:20.055Z,15.40
2019-02-18T19:23:47.535Z,15.25
2019-02-18T19:26:14.959Z,15.28
2019-02-18T19:28:42.560Z,15.80
2019-02-18T19:31:09.954Z,14.55
2019-02-18T19:33:37.331Z,13.22
2019-02-18T19:36:05.483Z,14.20
2019-02-18T19:38:32.967Z,13.90
2019-02-18T19:41:21.169Z,13.10
2019-02-18T19:43:50.326Z,13.53
2019-02-18T19:46:17.557Z,13.65
2019-02-18T19:48:44.875Z,13.35
2019-02-18T19:51:33.234Z,13.48
2019-02-18T19:54:00.541Z,14.20
2019-02-18T19:56:27.922Z,12.63
2019-02-18T19:58:55.356Z,13.58
2019-02-18T20:01:24.525Z,13.62
2019-02-18T20:03:51.917Z,13.25
2019-02-18T20:06:19.298Z,12.82
2019-02-18T20:08:46.689Z,12.15
2019-02-18T20:11:14.861Z,13.30
2019-02-18T20:13:42.185Z,13.50
2019-02-18T20:16:09.569Z,12.73
2019-02-18T20:18:38.619Z,12.95
2019-02-18T20:21:06.979Z,12.75
2019-02-18T20:23:35.081Z,11.75
2019-02-18T20:26:02.543Z,12.65
2019-02-18T20:28:29.934Z,13.20
2019-02-18T20:30:57.303Z,11.55
2019-02-18T20:33:24.751Z,12.85
2019-02-18T20:35:54.243Z,14.13
2019-02-18T20:38:21.661Z,12.63
2019-02-18T20:40:49.015Z,12.78
2019-02-18T20:43:16.325Z,11.68
2019-02-18T20:45:43.640Z,14.00
2019-02-18T20:48:11.031Z,13.40
2019-02-18T20:50:40.057Z,13.93
2019-02-18T20:53:07.445Z,13.18
2019-02-18T20:55:34.735Z,13.40
2019-02-18T20:58:03.884Z,13.35
2019-02-18T21:00:31.116Z,13.18
2019-02-18T21:02:58.443Z,12.68
2019-02-18T21:05:25.853Z,14.30
2019-02-18T21:07:53.536Z,15.70
2019-02-18T21:10:41.728Z,13.75
2019-02-18T21:13:09.056Z,13.80
2019-02-18T21:15:36.443Z,13.72
2019-02-18T21:18:03.855Z,14.58
2019-02-18T21:20:53.725Z,13.70
2019-02-18T21:23:21.158Z,13.78
2019-02-18T21:25:48.523Z,14.93
2019-02-18T21:28:15.950Z,13.58
2019-02-18T21:30:43.422Z,12.13
2019-02-18T21:33:10.789Z,13.65
2019-02-18T21:35:38.226Z,14.18
2019-02-18T21:38:05.610Z,14.25
2019-02-18T21:40:33.011Z,13.80
2019-02-18T21:43:00.382Z,14.15
2019-02-18T21:45:27.776Z,14.68
2019-02-18T21:47:55.171Z,14.47
2019-02-18T21:50:22.781Z,14.15
2019-02-18T21:52:50.165Z,14.33
2019-02-18T21:55:17.475Z,16.23
2019-02-18T21:57:44.788Z,13.15
2019-02-18T22:00:31.427Z,13.65
2019-02-18T22:02:58.913Z,14.10
2019-02-18T22:05:26.653Z,15.03
2019-02-18T22:07:54.042Z,14.30
2019-02-18T22:10:21.417Z,15.03
2019-02-18T22:12:48.780Z,15.63
2019-02-18T22:15:16.325Z,14.85
2019-02-18T22:17:43.698Z,14.60
2019-02-18T22:20:33.557Z,15.60
2019-02-18T22:23:00.936Z,14.60
2019-02-18T22:25:28.356Z,14.07
2019-02-18T22:27:55.732Z,15.83
2019-02-18T22:33:16.918Z,15.93
2019-02-18T22:35:44.314Z,15.10
2019-02-18T22:38:11.600Z,16.42
2019-02-18T22:40:38.982Z,16.55
2019-02-18T22:43:06.362Z,15.03
2019-02-18T22:45:33.735Z,15.80
2019-02-18T22:48:01.041Z,14.18
2019-02-18T22:50:28.368Z,15.45
2019-02-18T22:52:55.782Z,16.60
2019-02-18T22:55:23.157Z,16.85
2019-02-18T22:57:50.493Z,16.50
2019-02-18T23:00:38.662Z,18.12
2019-02-18T23:03:05.979Z,16.50
2019-02-18T23:05:33.326Z,14.87
2019-02-18T23:08:00.646Z,16.02
2019-02-18T23:10:28.059Z,15.83
2019-02-18T23:12:55.430Z,15.25
2019-02-18T23:15:22.732Z,15.25
2019-02-18T23:17:50.124Z,16.12
2019-02-18T23:20:17.492Z,13.58
2019-02-18T23:22:45.563Z,14.43
2019-02-18T23:25:12.923Z,15.88
2019-02-18T23:27:40.312Z,14.20
2019-02-18T23:30:07.674Z,14.98
2019-02-18T23:32:34.972Z,14.13
2019-02-18T23:35:02.262Z,13.35
2019-02-18T23:37:29.952Z,12.58
2019-02-18T23:39:57.288Z,13.05
2019-02-18T23:42:24.635Z,12.90
2019-02-18T23:44:59.047Z,12.90
2019-02-18T23:47:21.012Z,12.55
2019-02-18T23:49:48.336Z,13.45
2019-02-18T23:52:15.651Z,12.68
2019-02-18T23:54:43.040Z,13.40
2019-02-18T23:57:10.334Z,13.70
2019-02-18T23:59:37.695Z,12.75
